Time;durP1;ratioP1;P1;durP2;ratioP2;P2;SDS_P1;SDS_P2;PMS_P1;PMS_P2;Temp;Humidity;BMP_temperature;BMP_pressure;BME280_temperature;BME280_humidity;BME280_pressure;Samples;Min_cycle;Max_cycle;Signal;HPM_P1;HPM_P2
2023/08/04 00:00:23;;;;;;;1.20;0.82;;;;;;;26.74;46.51;100911.16;4903721;28;96747;-78
2023/08/04 00:02:50;;;;;;;2.85;1.15;;;;;;;26.74;46.57;100910.31;4908283;28;96761;-78
2023/08/04 00:05:16;;;;;;;1.90;1.00;;;;;;;26.74;46.56;100910.31;4906627;28;97545;-78
2023/08/04 00:07:43;;;;;;;1.65;0.95;;;;;;;26.73;46.62;100917.72;4911682;28;98911;-78
2023/08/04 00:10:10;;;;;;;1.92;0.90;;;;;;;26.72;46.62;100916.03;4887727;28;99735;-78
2023/08/04 00:12:36;;;;;;;2.65;1.23;;;;;;;26.74;46.44;100915.81;4915743;28;96851;-78
2023/08/04 00:15:04;;;;;;;1.48;1.00;;;;;;;26.72;46.62;100916.03;4898765;28;98009;-77
2023/08/04 00:17:30;;;;;;;1.98;1.08;;;;;;;26.73;46.52;100925.16;4911634;28;96934;-78
2023/08/04 00:19:57;;;;;;;1.27;0.95;;;;;;;26.72;46.77;100915.19;4908990;28;96875;-78
2023/08/04 00:22:23;;;;;;;1.50;1.00;;;;;;;26.71;46.65;100922.59;4912169;28;96627;-78
2023/08/04 00:24:50;;;;;;;1.20;0.88;;;;;;;26.71;46.63;100925.34;4902950;28;97824;-78
2023/08/04 00:27:16;;;;;;;1.60;0.90;;;;;;;26.71;46.49;100924.50;4910770;28;97992;-78
2023/08/04 00:29:43;;;;;;;2.35;1.00;;;;;;;26.71;46.49;100930.03;4907207;28;98580;-77
2023/08/04 00:32:09;;;;;;;1.42;1.10;;;;;;;26.71;46.71;100932.78;4894116;28;96771;-78
2023/08/04 00:34:36;;;;;;;2.00;1.08;;;;;;;26.70;46.42;100937.44;4912470;28;96883;-78
2023/08/04 00:37:02;;;;;;;1.73;0.80;;;;;;;26.71;46.47;100935.53;4903969;28;101305;-77
2023/08/04 00:39:29;;;;;;;1.55;1.13;;;;;;;26.71;46.67;100938.28;4911620;28;97121;-78
2023/08/04 00:41:56;;;;;;;1.00;0.63;;;;;;;26.70;46.64;100933.84;4913050;28;96662;-78
2023/08/04 00:44:22;;;;;;;1.90;1.08;;;;;;;26.71;46.47;100941.88;4905060;28;96937;-77
2023/08/04 00:46:49;;;;;;;2.42;1.10;;;;;;;26.70;46.50;100945.72;4905985;28;97884;-77
2023/08/04 00:49:18;;;;;;;2.70;1.23;;;;;;;26.71;46.49;100952.06;4913632;28;96979;-78
2023/08/04 00:51:45;;;;;;;1.73;0.80;;;;;;;26.70;46.63;100947.63;4912694;28;97087;-78
2023/08/04 00:54:12;;;;;;;1.52;1.00;;;;;;;26.70;46.52;100942.09;4913967;28;98681;-77
2023/08/04 00:56:39;;;;;;;1.50;0.88;;;;;;;26.69;46.49;100938.50;4911746;28;98574;-78
2023/08/04 00:59:06;;;;;;;1.45;0.98;;;;;;;26.69;46.41;100946.75;4895235;28;96759;-77
2023/08/04 01:01:33;;;;;;;1.73;1.00;;;;;;;26.70;46.47;100955.88;4906622;28;97070;-78
2023/08/04 01:04:00;;;;;;;1.38;0.88;;;;;;;26.69;46.47;100949.53;4912607;28;96722;-78
2023/08/04 01:06:42;;;;;;;1.38;0.80;;;;;;;26.69;46.53;100951.44;4907715;28;98870;-78
2023/08/04 01:09:22;;;;;;;2.53;0.98;;;;;;;26.69;46.48;100952.28;4909743;28;99934;-78
2023/08/04 01:12:12;;;;;;;2.28;0.90;;;;;;;26.69;46.50;100959.69;4910194;28;96949;-78
2023/08/04 01:14:41;;;;;;;1.67;0.90;;;;;;;26.67;46.44;100962.66;4911587;28;96696;-78
2023/08/04 01:17:28;;;;;;;1.23;0.80;;;;;;;26.68;46.50;100958.00;4910190;28;101086;-78
2023/08/04 01:19:56;;;;;;;1.73;0.95;;;;;;;26.66;46.52;100957.34;4905686;28;97213;-78
2023/08/04 01:22:24;;;;;;;1.67;0.90;;;;;;;26.66;46.44;100960.13;4908357;28;96848;-78
2023/08/04 01:24:52;;;;;;;1.75;1.10;;;;;;;26.67;46.45;100975.59;4907847;28;97149;-78
2023/08/04 01:27:33;;;;;;;2.72;1.00;;;;;;;26.65;46.50;100973.03;4892024;28;99347;-78
2023/08/04 01:30:03;;;;;;;1.80;1.00;;;;;;;26.65;46.50;100969.44;4892438;28;98880;-78
2023/08/04 01:32:31;;;;;;;1.52;0.90;;;;;;;26.65;46.58;100966.69;4908715;28;96868;-78
2023/08/04 01:34:58;;;;;;;2.08;1.25;;;;;;;26.65;46.56;100977.69;4910154;28;96730;-77
2023/08/04 01:37:25;;;;;;;1.27;0.90;;;;;;;26.65;46.43;100977.69;4908897;28;97483;-78
2023/08/04 01:39:52;;;;;;;1.33;0.80;;;;;;;26.64;46.45;100976.84;4912569;28;97653;-78
2023/08/04 01:42:18;;;;;;;1.63;1.02;;;;;;;26.64;46.54;100976.84;4910314;28;96643;-78
2023/08/04 01:44:45;;;;;;;1.65;0.90;;;;;;;26.65;46.50;100983.22;4896094;28;97023;-78
2023/08/04 01:47:11;;;;;;;2.17;0.90;;;;;;;26.64;46.52;100982.38;4912069;28;97256;-77
2023/08/04 01:49:38;;;;;;;1.88;1.00;;;;;;;26.64;46.81;100985.13;4914605;28;97201;-78
2023/08/04 01:52:05;;;;;;;1.17;0.90;;;;;;;26.65;46.57;100980.47;4911609;28;97219;-78
2023/08/04 01:54:31;;;;;;;1.73;0.90;;;;;;;26.65;46.51;100984.06;4920185;28;97273;-78
2023/08/04 01:56:58;;;;;;;1.10;0.80;;;;;;;26.65;46.44;100980.47;4913880;28;96809;-77
2023/08/04 01:59:24;;;;;;;1.63;1.23;;;;;;;26.65;46.35;100972.19;4905107;28;96452;-78
2023/08/04 02:01:51;;;;;;;1.33;0.80;;;;;;;26.64;46.49;100981.53;4912166;28;96718;-78
2023/08/04 02:04:18;;;;;;;1.55;1.00;;;;;;;26.64;46.27;100978.75;4914100;28;96760;-78
2023/08/04 02:06:45;;;;;;;1.90;0.85;;;;;;;26.65;46.42;100983.22;4910417;28;100239;-77
2023/08/04 02:09:12;;;;;;;1.20;1.00;;;;;;;26.64;46.35;100982.38;4911610;28;97175;-77
2023/08/04 02:11:38;;;;;;;1.70;1.13;;;;;;;26.64;46.46;100982.38;4896485;28;97319;-78
2023/08/04 02:14:05;;;;;;;1.48;0.80;;;;;;;26.64;45.92;100982.38;4911489;28;96917;-78
2023/08/04 02:16:31;;;;;;;2.10;1.10;;;;;;;26.63;46.34;100988.94;4911049;28;97461;-78
2023/08/04 02:19:09;;;;;;;1.42;0.80;;;;;;;26.65;46.62;100985.97;4909715;28;97635;-77
2023/08/04 02:21:36;;;;;;;2.83;1.17;;;;;;;26.64;46.44;100995.28;4912865;28;96815;-78
2023/08/04 02:24:04;;;;;;;1.05;0.77;;;;;;;26.62;46.44;100992.75;4913303;28;96736;-78
2023/08/04 02:26:31;;;;;;;1.95;0.88;;;;;;;26.64;46.32;100998.03;4911281;28;98942;-77
2023/08/04 02:28:58;;;;;;;2.47;1.10;;;;;;;26.63;46.34;100994.44;4911722;28;98680;-77
2023/08/04 02:31:27;;;;;;;1.05;0.82;;;;;;;26.62;46.32;101001.00;4895115;28;97682;-77
2023/08/04 02:33:54;;;;;;;1.35;1.00;;;;;;;26.62;46.47;100994.66;4912206;28;96558;-78
2023/08/04 02:36:21;;;;;;;1.38;0.80;;;;;;;26.63;46.36;100999.09;4910864;28;97177;-78
2023/08/04 02:38:47;;;;;;;1.00;0.80;;;;;;;26.62;46.18;101000.16;4911719;28;98205;-78
2023/08/04 02:41:14;;;;;;;1.63;1.00;;;;;;;26.62;46.22;100997.41;4913778;28;96711;-78
2023/08/04 02:43:41;;;;;;;1.27;0.80;;;;;;;26.62;46.44;100997.41;4912566;28;98339;-77
2023/08/04 02:46:09;;;;;;;1.25;0.80;;;;;;;26.61;46.33;101004.81;4913207;28;97550;-78
2023/08/04 02:48:36;;;;;;;1.52;0.82;;;;;;;26.62;46.35;101008.44;4910604;28;96944;-77
2023/08/04 02:51:12;;;;;;;1.23;0.80;;;;;;;26.61;46.41;101002.06;4908675;28;98227;-77
2023/08/04 02:53:46;;;;;;;1.63;0.98;;;;;;;26.59;46.30;101002.28;4912605;28;96927;-77
2023/08/04 02:56:17;;;;;;;0.93;0.75;;;;;;;26.61;46.35;101007.59;4909190;28;98989;-78
2023/08/04 02:58:44;;;;;;;2.08;0.90;;;;;;;26.60;46.46;101011.41;4909450;28;97912;-78
2023/08/04 03:01:12;;;;;;;2.17;1.10;;;;;;;26.60;46.30;101014.16;4919558;28;97116;-78
2023/08/04 03:03:40;;;;;;;1.13;0.90;;;;;;;26.60;46.27;101005.88;4907964;28;96704;-77
2023/08/04 03:06:06;;;;;;;2.08;1.20;;;;;;;26.59;46.30;101004.19;4911037;28;97066;-77
2023/08/04 03:08:33;;;;;;;1.63;0.93;;;;;;;26.58;46.41;101003.34;4913533;28;97249;-78
2023/08/04 03:11:00;;;;;;;1.52;0.93;;;;;;;26.60;46.25;101016.91;4913152;28;96831;-78
2023/08/04 03:13:27;;;;;;;1.88;0.90;;;;;;;26.59;46.24;101020.72;4899792;28;96872;-77
2023/08/04 03:15:58;;;;;;;1.77;1.00;;;;;;;26.58;46.22;101019.88;4910387;28;97573;-78
2023/08/04 03:18:25;;;;;;;1.30;0.80;;;;;;;26.59;46.19;101015.22;4914136;28;96818;-78
2023/08/04 03:20:52;;;;;;;1.73;0.93;;;;;;;26.58;46.17;101019.88;4915128;28;96820;-77
2023/08/04 03:23:19;;;;;;;1.58;1.05;;;;;;;26.58;46.22;101028.13;4914983;28;96768;-78
2023/08/04 03:25:46;;;;;;;1.15;1.05;;;;;;;26.58;46.30;101019.03;4915624;28;97013;-77
2023/08/04 03:28:12;;;;;;;1.55;1.00;;;;;;;26.57;46.23;101034.69;4915245;28;97309;-78
2023/08/04 03:30:39;;;;;;;1.67;1.10;;;;;;;26.58;46.19;101028.13;4915022;28;97326;-77
2023/08/04 03:33:06;;;;;;;1.50;0.90;;;;;;;26.58;46.34;101032.78;4911994;28;96853;-78
2023/08/04 03:35:33;;;;;;;1.40;0.95;;;;;;;26.58;46.38;101027.28;4911130;28;98897;-78
2023/08/04 03:38:00;;;;;;;1.70;1.00;;;;;;;26.58;46.38;101032.78;4909681;28;97041;-77
2023/08/04 03:40:26;;;;;;;1.45;0.95;;;;;;;26.58;46.30;101038.31;4910159;28;97415;-77
2023/08/04 03:42:53;;;;;;;1.52;0.90;;;;;;;26.57;46.33;101033.84;4892562;28;98354;-77
2023/08/04 03:45:19;;;;;;;1.13;0.90;;;;;;;26.57;46.12;101029.19;4908885;28;96781;-77
2023/08/04 03:47:46;;;;;;;2.03;1.33;;;;;;;26.58;46.25;101038.31;4895244;28;96820;-78
2023/08/04 03:50:12;;;;;;;2.42;1.10;;;;;;;26.56;46.25;101035.75;4897591;28;96939;-78
2023/08/04 03:52:39;;;;;;;1.52;0.90;;;;;;;26.56;46.24;101033.00;4904984;28;96383;-78
2023/08/04 03:55:06;;;;;;;1.58;0.90;;;;;;;26.56;46.23;101033.00;4911394;28;96907;-78
2023/08/04 03:57:33;;;;;;;1.00;0.80;;;;;;;26.56;46.36;101046.78;4915168;28;97280;-77
2023/08/04 04:00:01;;;;;;;1.35;0.90;;;;;;;26.56;46.14;101034.91;4912973;28;96844;-78
2023/08/04 04:02:37;;;;;;;1.88;1.10;;;;;;;26.54;46.10;101035.13;4906519;28;96864;-78
2023/08/04 04:05:04;;;;;;;1.10;0.80;;;;;;;26.55;46.32;101034.06;4913707;28;96607;-78
2023/08/04 04:07:30;;;;;;;2.08;1.10;;;;;;;26.54;46.06;101035.13;4909209;28;97994;-78
2023/08/04 04:09:57;;;;;;;1.23;0.82;;;;;;;26.55;46.27;101042.31;4911127;28;97118;-77
2023/08/04 04:12:23;;;;;;;1.60;0.90;;;;;;;26.54;46.27;101037.03;4913677;28;97112;-77
2023/08/04 04:14:50;;;;;;;1.25;0.93;;;;;;;26.54;46.28;101037.03;4907242;28;97866;-78
2023/08/04 04:17:17;;;;;;;1.48;0.95;;;;;;;26.54;46.15;101043.38;4911578;28;97417;-78
2023/08/04 04:19:44;;;;;;;1.40;0.98;;;;;;;26.54;46.01;101043.38;4910155;28;96918;-77
2023/08/04 04:22:11;;;;;;;1.42;0.70;;;;;;;26.55;46.30;101038.72;4911289;28;97370;-77
2023/08/04 04:24:37;;;;;;;2.35;1.10;;;;;;;26.54;46.30;101043.38;4911255;28;97006;-78
2023/08/04 04:27:04;;;;;;;1.77;0.90;;;;;;;26.54;46.26;101059.91;4914859;28;96914;-78
2023/08/04 04:29:32;;;;;;;1.80;1.00;;;;;;;26.54;46.02;101050.78;4913952;28;97142;-78
2023/08/04 04:31:58;;;;;;;1.50;1.17;;;;;;;26.54;46.14;101059.06;4910935;28;97440;-77
2023/08/04 04:34:25;;;;;;;1.60;0.90;;;;;;;26.54;46.04;101064.56;4913750;28;96608;-78
2023/08/04 04:36:52;;;;;;;2.28;1.33;;;;;;;26.54;46.32;101067.31;4912889;28;99470;-77
2023/08/04 04:39:18;;;;;;;1.80;1.00;;;;;;;26.55;46.19;101069.03;4904123;28;96789;-78
2023/08/04 04:41:45;;;;;;;1.20;0.88;;;;;;;26.53;46.26;101071.97;4910728;28;96832;-78
2023/08/04 04:44:12;;;;;;;1.10;0.77;;;;;;;26.53;46.32;101071.13;4910837;28;96608;-78
2023/08/04 04:46:39;;;;;;;1.25;1.00;;;;;;;26.53;46.08;101068.38;4895490;28;97332;-78
2023/08/04 04:49:05;;;;;;;1.38;0.95;;;;;;;26.53;46.03;101068.38;4910973;28;96779;-77
2023/08/04 04:51:32;;;;;;;1.67;1.25;;;;;;;26.53;46.19;101080.25;4913909;28;96741;-78
2023/08/04 04:53:59;;;;;;;1.67;0.90;;;;;;;26.53;46.15;101082.16;4911894;28;96947;-78
2023/08/04 04:56:26;;;;;;;1.95;0.80;;;;;;;26.52;46.17;101081.31;4907213;28;99042;-78
2023/08/04 04:58:52;;;;;;;1.33;0.90;;;;;;;26.52;46.27;101078.56;4911389;28;96529;-77
2023/08/04 05:01:19;;;;;;;1.83;1.10;;;;;;;26.51;45.96;101082.38;4914332;28;96648;-77
2023/08/04 05:03:46;;;;;;;1.98;1.00;;;;;;;26.51;46.03;101079.59;4907904;28;97095;-78
2023/08/04 05:06:12;;;;;;;1.50;1.00;;;;;;;26.51;46.11;101082.38;4913933;28;96719;-78
2023/08/04 05:08:39;;;;;;;1.23;0.98;;;;;;;26.51;46.09;101089.78;4913014;28;96771;-77
2023/08/04 05:11:05;;;;;;;1.58;0.85;;;;;;;26.51;46.02;101084.25;4909483;28;98996;-77
2023/08/04 05:13:32;;;;;;;1.30;0.95;;;;;;;26.52;46.37;101091.47;4910864;28;96847;-78
2023/08/04 05:15:58;;;;;;;1.73;0.88;;;;;;;26.51;46.26;101096.13;4910390;28;97968;-78
2023/08/04 05:18:25;;;;;;;1.48;1.23;;;;;;;26.51;46.17;101095.28;4913212;28;96660;-77
2023/08/04 05:20:52;;;;;;;1.27;0.80;;;;;;;26.52;46.04;101091.47;4912819;28;97530;-77
2023/08/04 05:23:18;;;;;;;1.60;0.95;;;;;;;26.51;46.03;101093.38;4907812;28;97573;-78
2023/08/04 05:25:45;;;;;;;1.20;0.90;;;;;;;26.51;46.46;101089.78;4907126;28;97821;-77
2023/08/04 05:28:27;;;;;;;1.40;1.10;;;;;;;26.51;46.20;101089.78;4905023;28;96748;-77
2023/08/04 05:30:59;;;;;;;1.67;1.20;;;;;;;26.50;45.94;101094.44;4909304;28;98014;-78
2023/08/04 05:33:27;;;;;;;1.10;0.80;;;;;;;26.50;45.94;101097.19;4906850;28;98136;-77
2023/08/04 05:35:53;;;;;;;2.05;1.15;;;;;;;26.50;45.69;101099.94;4912199;28;96824;-77
2023/08/04 05:38:21;;;;;;;2.17;0.90;;;;;;;26.51;46.08;101106.31;4910522;28;97270;-77
2023/08/04 05:40:48;;;;;;;1.05;0.90;;;;;;;26.50;46.25;101107.34;4910777;28;96858;-77
2023/08/04 05:43:15;;;;;;;0.98;0.80;;;;;;;26.50;46.23;101110.97;4909957;28;96560;-78
2023/08/04 05:45:44;;;;;;;1.58;1.02;;;;;;;26.51;46.06;101120.06;4917120;28;98390;-77
2023/08/04 05:48:11;;;;;;;1.00;0.85;;;;;;;26.51;46.26;101117.31;4913602;28;96789;-78
2023/08/04 05:50:38;;;;;;;1.30;0.90;;;;;;;26.50;46.04;101121.97;4912117;28;96961;-78
2023/08/04 05:53:04;;;;;;;1.55;0.98;;;;;;;26.51;46.05;101120.06;4899939;28;98227;-78
2023/08/04 05:55:31;;;;;;;1.42;1.10;;;;;;;26.51;46.13;101129.19;4905386;28;96747;-77
2023/08/04 05:57:57;;;;;;;1.65;0.90;;;;;;;26.52;45.82;101130.03;4911006;28;96795;-78
2023/08/04 06:00:24;;;;;;;1.73;1.10;;;;;;;26.51;45.94;101129.19;4907277;28;96930;-77
2023/08/04 06:02:51;;;;;;;2.03;1.15;;;;;;;26.51;46.08;101140.22;4910024;28;98199;-77
2023/08/04 06:05:18;;;;;;;1.45;1.00;;;;;;;26.52;46.02;101139.16;4909419;28;96734;-77
2023/08/04 06:07:47;;;;;;;0.77;0.68;;;;;;;26.53;46.22;101142.75;4911378;28;97737;-77
2023/08/04 06:10:16;;;;;;;2.00;0.90;;;;;;;26.52;46.01;101141.91;4907741;28;96959;-77
2023/08/04 06:12:42;;;;;;;1.85;1.10;;;;;;;26.53;45.99;101140.84;4908966;28;97424;-77
2023/08/04 06:15:09;;;;;;;1.45;0.98;;;;;;;26.54;46.05;101144.44;4906216;28;100684;-77
2023/08/04 06:17:36;;;;;;;1.50;0.90;;;;;;;26.54;45.92;101149.97;4912426;28;97645;-77
2023/08/04 06:20:04;;;;;;;2.00;1.10;;;;;;;26.54;46.28;101147.19;4909132;28;96920;-77
2023/08/04 06:22:31;;;;;;;1.65;1.00;;;;;;;26.53;45.97;101151.88;4905972;28;97751;-76
2023/08/04 06:25:04;;;;;;;1.98;1.00;;;;;;;26.54;46.12;101153.56;4899359;28;97241;-79
2023/08/04 06:27:32;;;;;;;1.77;0.95;;;;;;;26.54;46.00;101164.59;4901184;28;97883;-77
2023/08/04 06:30:18;;;;;;;1.95;1.10;;;;;;;26.55;45.98;101159.94;4909961;28;97080;-79
2023/08/04 06:33:04;;;;;;;2.17;1.17;;;;;;;26.51;46.00;101164.16;4898742;28;97834;-77
2023/08/04 06:35:30;;;;;;;1.33;0.90;;;;;;;26.52;46.11;101166.69;4910683;28;97686;-77
2023/08/04 06:37:58;;;;;;;1.85;1.00;;;;;;;26.53;45.97;101175.81;4903994;28;96564;-77
2023/08/04 06:40:25;;;;;;;1.90;1.00;;;;;;;26.54;45.92;101177.50;4891425;28;96823;-77
2023/08/04 06:42:53;;;;;;;0.98;0.90;;;;;;;26.53;46.01;101181.31;4907782;28;97802;-76
2023/08/04 06:45:19;;;;;;;1.23;0.88;;;;;;;26.53;45.84;101179.41;4902404;28;98372;-77
2023/08/04 06:47:46;;;;;;;1.85;1.15;;;;;;;26.53;45.87;101179.41;4899028;28;97072;-77
2023/08/04 06:50:12;;;;;;;1.65;1.00;;;;;;;26.53;45.97;101179.41;4914677;28;97390;-77
2023/08/04 06:52:39;;;;;;;1.65;0.90;;;;;;;26.55;45.92;101184.72;4913453;28;97020;-77
2023/08/04 06:55:06;;;;;;;1.77;0.93;;;;;;;26.55;45.85;101184.72;4912120;28;96884;-77
2023/08/04 06:57:32;;;;;;;1.50;1.02;;;;;;;26.55;45.84;101182.81;4910421;28;97150;-77
2023/08/04 06:59:59;;;;;;;1.33;1.10;;;;;;;26.56;45.84;101191.91;4910331;28;96807;-77
2023/08/04 07:02:25;;;;;;;2.17;1.23;;;;;;;26.55;45.90;101188.31;4910169;28;98450;-77
2023/08/04 07:04:52;;;;;;;1.20;0.90;;;;;;;26.56;45.78;101191.91;4908340;28;98330;-77
2023/08/04 07:07:18;;;;;;;1.10;0.90;;;;;;;26.57;45.89;101196.38;4910373;28;97051;-77
2023/08/04 07:09:45;;;;;;;2.20;1.27;;;;;;;26.56;45.95;101191.91;4906493;28;97673;-77
2023/08/04 07:12:11;;;;;;;1.67;1.10;;;;;;;26.56;45.99;101191.91;4911546;28;96526;-77
2023/08/04 07:14:38;;;;;;;1.85;1.05;;;;;;;26.57;45.95;101193.63;4908832;28;96741;-77
2023/08/04 07:17:05;;;;;;;2.28;1.35;;;;;;;26.56;45.84;101198.28;4915731;28;96930;-77
2023/08/04 07:19:31;;;;;;;2.40;0.88;;;;;;;26.58;45.93;101200.84;4908051;28;96798;-77
2023/08/04 07:21:58;;;;;;;1.88;1.20;;;;;;;26.58;46.14;101198.06;4907637;28;98240;-77
2023/08/04 07:24:25;;;;;;;1.45;1.10;;;;;;;26.58;46.09;101200.84;4915184;28;97146;-77
2023/08/04 07:26:53;;;;;;;2.95;1.23;;;;;;;26.58;45.55;101198.06;4910418;28;97164;-77
2023/08/04 07:29:19;;;;;;;1.88;1.27;;;;;;;26.59;46.14;101205.28;4911562;28;97602;-77
2023/08/04 07:31:46;;;;;;;3.13;1.02;;;;;;;26.58;45.87;101207.19;4905707;28;96692;-77
2023/08/04 07:34:13;;;;;;;1.85;1.10;;;;;;;26.59;45.88;101202.53;4910965;28;97934;-77
2023/08/04 07:36:42;;;;;;;1.30;0.95;;;;;;;26.59;45.94;101205.28;4908960;28;96823;-77
2023/08/04 07:39:09;;;;;;;1.33;1.02;;;;;;;26.59;45.98;101205.28;4908110;28;97081;-77
2023/08/04 07:41:35;;;;;;;2.35;1.20;;;;;;;26.59;45.96;101211.66;4911493;28;96702;-77
2023/08/04 07:44:02;;;;;;;2.58;1.15;;;;;;;26.59;46.01;101211.66;4914657;28;96859;-77
2023/08/04 07:46:29;;;;;;;1.88;1.40;;;;;;;26.60;45.87;101212.50;4913678;28;96891;-77
2023/08/04 07:48:56;;;;;;;1.77;1.08;;;;;;;26.59;45.88;101211.66;4911327;28;96826;-77
2023/08/04 07:51:23;;;;;;;2.80;1.20;;;;;;;26.59;45.81;101219.91;4914267;28;100405;-77
2023/08/04 07:53:50;;;;;;;2.25;1.30;;;;;;;26.59;45.92;101217.16;4915676;28;96745;-77
2023/08/04 07:56:17;;;;;;;1.35;1.00;;;;;;;26.59;45.90;101222.66;4912095;28;97190;-77
2023/08/04 07:58:44;;;;;;;1.35;1.10;;;;;;;26.60;45.95;101229.88;4896049;28;96751;-77
2023/08/04 08:01:11;;;;;;;1.10;1.00;;;;;;;26.60;45.86;101223.50;4905755;28;97789;-77
2023/08/04 08:03:37;;;;;;;2.92;1.17;;;;;;;26.59;45.87;101228.19;4913040;28;96756;-77
2023/08/04 08:06:04;;;;;;;1.15;1.00;;;;;;;26.60;45.82;101229.03;4900584;28;97170;-77
2023/08/04 08:08:31;;;;;;;2.60;1.33;;;;;;;26.60;45.77;101226.28;4912591;28;96793;-77
2023/08/04 08:10:58;;;;;;;2.50;1.48;;;;;;;26.60;45.89;101224.38;4911723;28;97227;-77
2023/08/04 08:13:25;;;;;;;1.92;1.13;;;;;;;26.61;45.67;101227.97;4911344;28;97406;-77
2023/08/04 08:15:51;;;;;;;1.35;1.10;;;;;;;26.62;45.64;101234.31;4908208;28;96921;-77
2023/08/04 08:18:18;;;;;;;2.25;1.17;;;;;;;26.62;45.85;101239.84;4909697;28;96885;-77
2023/08/04 08:20:44;;;;;;;1.08;0.90;;;;;;;26.62;45.91;101237.09;4908658;28;96715;-77
2023/08/04 08:23:11;;;;;;;1.42;1.10;;;;;;;26.62;45.82;101232.44;4909891;28;97918;-77
2023/08/04 08:25:38;;;;;;;1.08;0.98;;;;;;;26.63;46.03;101247.91;4913011;28;96875;-77
2023/08/04 08:28:05;;;;;;;1.77;1.02;;;;;;;26.63;46.14;101238.78;4907695;28;96931;-77
2023/08/04 08:30:31;;;;;;;1.92;1.00;;;;;;;26.63;45.67;101244.28;4910190;28;97482;-77
2023/08/04 08:32:58;;;;;;;1.67;1.02;;;;;;;26.63;45.68;101247.06;4897679;28;100655;-77
2023/08/04 08:35:24;;;;;;;1.58;1.10;;;;;;;26.64;45.61;101244.09;4910950;28;96907;-77
2023/08/04 08:37:51;;;;;;;2.10;1.40;;;;;;;26.64;46.01;101255.13;4915981;28;97150;-77
2023/08/04 08:40:19;;;;;;;1.70;1.10;;;;;;;26.65;45.80;101250.44;4913278;28;97917;-77
2023/08/04 08:42:45;;;;;;;1.83;1.20;;;;;;;26.65;45.66;101250.44;4913642;28;97291;-77
2023/08/04 08:45:12;;;;;;;1.63;1.10;;;;;;;26.64;45.92;101252.34;4914161;28;96771;-77
2023/08/04 08:47:38;;;;;;;1.52;1.08;;;;;;;26.65;45.72;101253.22;4906080;28;96900;-77
2023/08/04 08:50:06;;;;;;;2.00;1.15;;;;;;;26.65;45.83;101247.69;4913027;28;96878;-77
2023/08/04 08:52:38;;;;;;;1.65;1.10;;;;;;;26.67;45.70;101256.59;4913777;28;96656;-77
2023/08/04 08:55:05;;;;;;;1.55;0.88;;;;;;;26.67;45.67;101256.59;4914272;28;97549;-77
2023/08/04 08:57:32;;;;;;;1.67;1.10;;;;;;;26.67;45.66;101264.88;4914987;28;96924;-77
2023/08/04 09:00:00;;;;;;;1.95;1.15;;;;;;;26.67;45.77;101268.47;4913318;28;96596;-77
2023/08/04 09:02:27;;;;;;;1.20;1.02;;;;;;;26.67;45.72;101264.88;4911805;28;97346;-77
2023/08/04 09:04:54;;;;;;;1.70;1.25;;;;;;;26.68;45.88;101264.66;4908288;28;97536;-77
2023/08/04 09:07:24;;;;;;;2.08;1.00;;;;;;;26.68;45.65;101264.66;4903880;28;97009;-77
2023/08/04 09:09:50;;;;;;;1.50;1.20;;;;;;;26.68;45.47;101261.06;4904976;28;98842;-77
2023/08/04 09:12:17;;;;;;;1.58;0.95;;;;;;;26.68;45.71;101266.56;4913628;28;97273;-77
2023/08/04 09:14:56;;;;;;;2.38;1.15;;;;;;;26.68;45.67;101267.44;4906897;28;96918;-77
2023/08/04 09:17:36;;;;;;;1.98;1.10;;;;;;;26.68;45.65;101272.09;4896798;28;96894;-77
2023/08/04 09:20:08;;;;;;;2.55;1.10;;;;;;;26.69;45.63;101271.88;4914668;28;96762;-77
2023/08/04 09:22:43;;;;;;;1.75;1.30;;;;;;;26.68;45.66;101270.19;4913517;28;97404;-77
2023/08/04 09:25:10;;;;;;;1.70;1.17;;;;;;;26.68;45.71;101275.69;4914157;28;96797;-77
2023/08/04 09:27:41;;;;;;;2.53;1.30;;;;;;;26.69;45.57;101277.38;4911158;28;99449;-77
2023/08/04 09:30:09;;;;;;;1.38;1.10;;;;;;;26.69;45.61;101271.03;4887404;28;100738;-77
2023/08/04 09:32:45;;;;;;;1.73;1.00;;;;;;;26.68;45.64;101278.44;4903978;28;96713;-77
2023/08/04 09:35:13;;;;;;;1.42;1.10;;;;;;;26.68;45.67;101277.59;4906582;28;96867;-77
2023/08/04 09:37:41;;;;;;;1.88;1.10;;;;;;;26.69;45.82;101282.06;4909116;28;97524;-77
2023/08/04 09:40:16;;;;;;;2.90;1.30;;;;;;;26.69;45.61;101279.28;4906154;28;97512;-77
2023/08/04 09:42:43;;;;;;;1.95;1.27;;;;;;;26.69;45.79;101282.06;4921658;28;98316;-77
2023/08/04 09:45:17;;;;;;;1.35;0.95;;;;;;;26.69;45.57;101274.63;4912406;28;96884;-77
2023/08/04 09:47:48;;;;;;;1.37;1.10;;;;;;;26.69;45.54;101282.06;4910576;28;96669;-77
2023/08/04 09:50:18;;;;;;;1.50;0.95;;;;;;;26.70;45.63;101278.25;4909396;28;96928;-77
2023/08/04 09:52:44;;;;;;;2.13;0.90;;;;;;;26.70;45.59;101276.34;4897099;28;96807;-77
2023/08/04 09:55:11;;;;;;;1.65;1.15;;;;;;;26.70;45.63;101276.34;4914270;28;96805;-77
2023/08/04 09:57:38;;;;;;;1.58;1.10;;;;;;;26.71;45.43;101282.69;4913398;28;97071;-77
2023/08/04 10:00:08;;;;;;;1.80;0.98;;;;;;;26.72;45.44;101273.38;4911627;28;97953;-77
2023/08/04 10:02:37;;;;;;;2.22;1.35;;;;;;;26.73;45.59;101278.69;4910684;28;96770;-77
2023/08/04 10:05:05;;;;;;;1.23;1.00;;;;;;;26.73;45.48;101269.56;4900543;28;96847;-77
2023/08/04 10:07:34;;;;;;;1.98;1.17;;;;;;;26.74;45.75;101266.59;4907722;28;97428;-77
2023/08/04 10:10:04;;;;;;;2.50;1.20;;;;;;;26.75;45.58;101272.97;4910692;28;98853;-77
2023/08/04 10:12:34;;;;;;;1.65;1.08;;;;;;;26.75;45.46;101272.97;4910096;28;99450;-77
2023/08/04 10:15:00;;;;;;;2.13;1.10;;;;;;;26.75;45.66;101284.00;4907881;28;97319;-77
2023/08/04 10:17:27;;;;;;;2.38;1.50;;;;;;;26.74;45.56;101294.16;4903207;28;97307;-77
2023/08/04 10:20:05;;;;;;;1.52;1.05;;;;;;;26.75;45.43;101292.25;4910102;28;97882;-77
2023/08/04 10:22:33;;;;;;;1.60;1.08;;;;;;;26.75;45.45;101295.00;4914236;28;99363;-77
2023/08/04 10:25:00;;;;;;;2.22;1.30;;;;;;;26.74;45.69;101287.81;4899202;28;97494;-77
2023/08/04 10:27:27;;;;;;;1.83;1.30;;;;;;;26.74;45.51;101294.16;4912860;28;97265;-77
2023/08/04 10:30:10;;;;;;;1.60;1.20;;;;;;;26.74;45.56;101299.66;4902504;28;98673;-77
2023/08/04 10:32:38;;;;;;;1.80;1.48;;;;;;;26.73;45.29;101297.97;4897025;28;98259;-77
2023/08/04 10:35:16;;;;;;;1.73;1.13;;;;;;;26.74;45.49;101298.81;4896028;28;97632;-78
2023/08/04 10:37:48;;;;;;;1.25;0.88;;;;;;;26.75;45.38;101297.75;4908280;28;96824;-77
2023/08/04 10:40:32;;;;;;;3.15;1.30;;;;;;;26.75;45.40;101292.25;4910069;28;96871;-78
2023/08/04 10:43:00;;;;;;;2.25;1.60;;;;;;;26.74;45.47;101294.16;4916415;28;98421;-78
2023/08/04 10:45:52;;;;;;;1.60;1.10;;;;;;;26.75;45.44;101295.84;4909775;28;97458;-78
2023/08/04 10:48:21;;;;;;;1.38;1.17;;;;;;;26.73;45.42;101288.84;4902851;28;97435;-78
2023/08/04 10:50:51;;;;;;;1.33;1.00;;;;;;;26.74;45.58;101288.66;4894028;28;99575;-78
2023/08/04 10:53:18;;;;;;;1.42;1.20;;;;;;;26.75;45.43;101303.28;4906560;28;97667;-78
2023/08/04 10:55:55;;;;;;;1.38;1.00;;;;;;;26.75;45.54;101295.84;4909944;28;98790;-78
2023/08/04 10:58:23;;;;;;;2.15;1.35;;;;;;;26.76;45.45;101297.59;4904840;28;97630;-78
2023/08/04 11:00:52;;;;;;;1.65;0.80;;;;;;;26.75;45.42;101301.38;4910877;28;99377;-78
2023/08/04 11:03:23;;;;;;;1.70;1.20;;;;;;;26.77;45.42;101295.69;4896218;28;100068;-77
2023/08/04 11:05:50;;;;;;;0.90;0.90;;;;;;;26.77;45.56;101295.69;4909203;28;96683;-77
2023/08/04 11:08:19;;;;;;;1.15;1.00;;;;;;;26.77;45.55;101307.56;4914580;28;96293;-77
2023/08/04 11:10:47;;;;;;;2.25;1.02;;;;;;;26.78;45.42;101303.75;4908538;28;97637;-78
2023/08/04 11:13:18;;;;;;;1.42;1.08;;;;;;;26.79;45.36;101307.34;4906566;28;96881;-78
2023/08/04 11:15:47;;;;;;;1.45;1.20;;;;;;;26.79;45.60;101304.59;4905788;28;96875;-78
2023/08/04 11:18:16;;;;;;;1.65;1.17;;;;;;;26.79;45.35;101304.59;4902636;28;96644;-78
2023/08/04 11:20:42;;;;;;;1.48;1.20;;;;;;;26.81;45.34;101305.25;4908367;28;97868;-78
2023/08/04 11:23:10;;;;;;;1.73;0.93;;;;;;;26.79;45.48;101299.94;4909571;28;97821;-77
2023/08/04 11:25:38;;;;;;;1.55;1.10;;;;;;;26.80;45.14;101309.91;4907151;28;97319;-78
2023/08/04 11:28:06;;;;;;;1.13;1.02;;;;;;;26.81;45.45;101310.75;4909589;28;97121;-78